Time;durP1;ratioP1;P1;durP2;ratioP2;P2;SDS_P1;SDS_P2;PMS_P1;PMS_P2;Temp;Humidity;BMP_temperature;BMP_pressure;BME280_temperature;BME280_humidity;BME280_pressure;Samples;Min_cycle;Max_cycle;Signal;HPM_P1;HPM_P2
2022/10/05 00:00:49;;;;;;;75.07;36.40;;;6.70;99.90;;;;;;10403129;28;20594;-76
2022/10/05 00:05:50;;;;;;;90.63;35.70;;;6.70;99.90;;;;;;10405077;28;20724;-78
2022/10/05 00:10:51;;;;;;;60.47;31.07;;;6.70;99.90;;;;;;10397851;28;20046;-78
2022/10/05 00:16:12;;;;;;;72.80;34.03;;;6.60;99.90;;;;;;10400693;28;20026;-79
2022/10/05 00:21:24;;;;;;;87.17;40.27;;;6.50;99.90;;;;;;10395867;28;20018;-78
2022/10/05 00:26:26;;;;;;;98.73;41.53;;;6.50;99.90;;;;;;10404002;28;20021;-78
2022/10/05 00:31:31;;;;;;;91.53;40.47;;;6.50;99.90;;;;;;10403872;28;20114;-78
2022/10/05 00:36:31;;;;;;;72.03;36.37;;;6.50;99.90;;;;;;10404355;28;20103;-82
2022/10/05 00:41:53;;;;;;;69.03;37.77;;;6.40;99.90;;;;;;10398685;28;20038;-79
2022/10/05 00:47:29;;;;;;;86.23;40.97;;;6.40;99.90;;;;;;10391245;28;20072;-78
2022/10/05 00:52:33;;;;;;;94.70;48.60;;;6.30;99.90;;;;;;10393095;28;20057;-79
2022/10/05 00:58:01;;;;;;;97.43;50.00;;;6.20;99.90;;;;;;10392120;28;20519;-78
2022/10/05 01:03:22;;;;;;;92.80;49.20;;;6.10;99.90;;;;;;10399055;28;20702;-77
2022/10/05 01:08:47;;;;;;;87.13;45.20;;;6.10;99.90;;;;;;10399027;28;20045;-78
2022/10/05 01:14:00;;;;;;;89.87;47.63;;;6.10;99.90;;;;;;10395590;28;20041;-78
2022/10/05 01:19:04;;;;;;;91.27;45.77;;;6.20;99.90;;;;;;10410714;28;20035;-78
2022/10/05 01:24:16;;;;;;;91.30;48.47;;;6.20;99.90;;;;;;10408809;28;20033;-79
2022/10/05 01:29:28;;;;;;;86.57;45.23;;;6.20;99.90;;;;;;10405797;28;20063;-78
2022/10/05 01:34:48;;;;;;;73.40;41.13;;;6.20;99.90;;;;;;10395679;28;20101;-78
2022/10/05 01:40:03;;;;;;;76.10;41.27;;;6.20;99.90;;;;;;10410224;28;20072;-78
2022/10/05 01:45:18;;;;;;;86.07;44.57;;;6.20;99.90;;;;;;10409494;28;20033;-78
2022/10/05 01:50:30;;;;;;;115.82;52.10;;;6.30;99.90;;;;;;10404315;28;20068;-80
2022/10/05 01:55:43;;;;;;;97.93;47.90;;;6.20;99.90;;;;;;10401480;28;20033;-79
2022/10/05 02:00:53;;;;;;;89.77;47.80;;;6.20;99.90;;;;;;10407433;28;20029;-81
2022/10/05 02:06:07;;;;;;;98.57;44.80;;;6.20;99.90;;;;;;10408719;28;20033;-78
2022/10/05 02:11:10;;;;;;;85.97;46.23;;;6.20;99.90;;;;;;10405339;28;20033;-81
2022/10/05 02:16:15;;;;;;;94.27;46.70;;;6.20;99.90;;;;;;10407265;28;20034;-78
2022/10/05 02:21:18;;;;;;;75.23;40.00;;;6.20;99.90;;;;;;10397853;28;20040;-78
2022/10/05 02:26:21;;;;;;;97.37;44.77;;;6.20;99.90;;;;;;10402226;28;20067;-78
2022/10/05 02:31:29;;;;;;;90.57;44.40;;;6.10;99.90;;;;;;10407080;28;20049;-80
2022/10/05 02:36:34;;;;;;;84.73;45.63;;;6.20;99.90;;;;;;10407791;28;20030;-79
2022/10/05 02:41:52;;;;;;;74.30;40.40;;;6.20;99.90;;;;;;10402763;28;20064;-78
2022/10/05 02:47:05;;;;;;;73.83;36.07;;;6.20;99.90;;;;;;10390726;28;20029;-78
2022/10/05 02:52:20;;;;;;;68.93;32.20;;;6.10;99.90;;;;;;10406513;28;20053;-82
2022/10/05 02:57:42;;;;;;;59.92;31.83;;;6.00;99.90;;;;;;10393471;28;20045;-78
2022/10/05 03:02:45;;;;;;;59.47;32.33;;;6.10;99.90;;;;;;10384153;28;20370;-78
2022/10/05 03:07:59;;;;;;;59.83;32.70;;;6.00;99.90;;;;;;10406487;28;20044;-77
2022/10/05 03:13:16;;;;;;;63.87;34.07;;;6.00;99.90;;;;;;10405399;28;20033;-76
2022/10/05 03:18:36;;;;;;;79.40;38.03;;;5.90;99.90;;;;;;10388434;28;20025;-79
2022/10/05 03:23:51;;;;;;;68.33;33.13;;;5.80;99.90;;;;;;10394316;28;20041;-79
2022/10/05 03:29:37;;;;;;;82.05;35.72;;;5.80;99.90;;;;;;10400314;28;20080;-79
2022/10/05 03:34:52;;;;;;;68.60;34.13;;;5.80;99.90;;;;;;10380820;28;20137;-78
2022/10/05 03:40:10;;;;;;;68.53;33.83;;;5.80;99.90;;;;;;10400887;28;20538;-79
2022/10/05 03:45:26;;;;;;;61.57;31.30;;;5.80;99.90;;;;;;10401541;28;20603;-79
2022/10/05 03:50:35;;;;;;;67.77;33.53;;;5.90;99.90;;;;;;10405675;28;20076;-84
2022/10/05 03:55:48;;;;;;;72.50;36.03;;;6.00;99.90;;;;;;10395169;28;20476;-82
2022/10/05 04:00:56;;;;;;;78.47;38.17;;;6.00;99.90;;;;;;10396589;28;20075;-83
2022/10/05 04:06:34;;;;;;;83.03;36.17;;;5.90;99.90;;;;;;10405412;28;20060;-80
2022/10/05 04:11:41;;;;;;;70.90;34.43;;;5.80;99.90;;;;;;10374025;28;20095;-79
2022/10/05 04:16:54;;;;;;;66.23;35.97;;;5.80;99.90;;;;;;10392937;28;20029;-80
2022/10/05 04:22:17;;;;;;;91.47;38.03;;;5.80;99.90;;;;;;10394644;28;20029;-80
2022/10/05 04:27:26;;;;;;;64.73;33.50;;;5.80;99.90;;;;;;10391742;28;20029;-79
2022/10/05 04:32:35;;;;;;;86.73;39.57;;;5.70;99.90;;;;;;10403199;28;20062;-80
2022/10/05 04:37:44;;;;;;;69.03;35.43;;;5.70;99.90;;;;;;10394730;28;20116;-79
2022/10/05 04:43:17;;;;;;;54.20;30.90;;;5.60;99.90;;;;;;10402965;28;20130;-83
2022/10/05 04:48:28;;;;;;;66.37;33.20;;;5.60;99.90;;;;;;10404590;28;20065;-80
2022/10/05 04:53:40;;;;;;;75.80;34.50;;;5.70;99.90;;;;;;10412330;28;20091;-80
2022/10/05 04:58:44;;;;;;;76.43;34.67;;;5.70;99.90;;;;;;10412396;28;20119;-79
2022/10/05 05:04:31;;;;;;;57.00;30.80;;;5.60;99.90;;;;;;10411429;28;20444;-80
2022/10/05 05:09:49;;;;;;;65.75;33.75;;;5.60;99.90;;;;;;10405959;28;20048;-79
2022/10/05 05:15:17;;;;;;;53.33;29.87;;;5.70;99.90;;;;;;10411089;28;20041;-80
2022/10/05 05:20:53;;;;;;;63.90;32.57;;;5.70;99.90;;;;;;10411051;28;20022;-82
2022/10/05 05:26:21;;;;;;;62.97;31.75;;;5.70;99.90;;;;;;10411564;28;20079;-83
2022/10/05 05:31:47;;;;;;;64.27;35.07;;;5.70;99.90;;;;;;10411913;28;20107;-84
2022/10/05 05:37:00;;;;;;;52.77;30.87;;;5.90;99.90;;;;;;10411212;28;20551;-81
2022/10/05 05:42:26;;;;;;;420.33;268.13;;;6.00;99.90;;;;;;10411053;28;20555;-80
2022/10/05 05:47:36;;;;;;;162.43;100.67;;;6.10;99.90;;;;;;10400912;28;20125;-81
2022/10/05 05:52:42;;;;;;;235.17;137.30;;;6.20;99.90;;;;;;10401714;28;20400;-80
2022/10/05 05:58:10;;;;;;;144.20;82.53;;;6.30;99.90;;;;;;10410559;28;20045;-82
2022/10/05 06:03:20;;;;;;;98.57;61.37;;;6.40;99.90;;;;;;10408380;28;20025;-80
2022/10/05 06:08:28;;;;;;;132.03;85.87;;;6.40;99.90;;;;;;10409784;28;20028;-80
2022/10/05 06:13:34;;;;;;;87.50;51.00;;;6.50;99.90;;;;;;10410500;28;20022;-80
2022/10/05 06:18:40;;;;;;;127.03;90.07;;;6.60;99.90;;;;;;10408369;28;20025;-81
2022/10/05 06:23:57;;;;;;;90.67;50.73;;;6.70;99.90;;;;;;10407849;28;20023;-79
2022/10/05 06:29:04;;;;;;;76.47;42.77;;;6.80;99.90;;;;;;10409156;28;20053;-80
2022/10/05 06:34:22;;;;;;;83.37;45.43;;;7.00;99.90;;;;;;10409768;28;20017;-80
2022/10/05 06:39:49;;;;;;;78.63;44.43;;;7.20;99.90;;;;;;10408737;28;20108;-80
2022/10/05 06:45:04;;;;;;;75.50;42.37;;;7.40;99.90;;;;;;10408496;28;20053;-79
2022/10/05 06:50:29;;;;;;;71.03;39.10;;;7.70;99.90;;;;;;10408350;28;20117;-83
2022/10/05 06:55:33;;;;;;;66.73;37.20;;;8.00;99.90;;;;;;10408293;28;20079;-80
2022/10/05 07:00:38;;;;;;;60.93;36.60;;;8.30;99.90;;;;;;10407779;28;20043;-80
2022/10/05 07:05:51;;;;;;;62.17;33.63;;;8.70;99.90;;;;;;10407728;28;20030;-80
2022/10/05 07:11:04;;;;;;;49.57;29.90;;;9.00;99.90;;;;;;10406130;28;20573;-80
2022/10/05 07:16:17;;;;;;;55.20;30.67;;;9.40;99.90;;;;;;10406356;28;20056;-79
2022/10/05 07:21:29;;;;;;;53.78;28.50;;;9.70;99.90;;;;;;10407702;28;20025;-83
2022/10/05 07:26:40;;;;;;;41.45;26.08;;;10.10;99.90;;;;;;10405260;28;20375;-80
2022/10/05 07:31:55;;;;;;;29.63;16.25;;;10.40;99.90;;;;;;10406965;28;20100;-82
2022/10/05 07:42:36;;;;;;;17.80;10.35;;;11.20;99.90;;;;;;10406825;28;20100;-82
2022/10/05 07:47:48;;;;;;;16.95;8.77;;;11.60;99.90;;;;;;10406026;28;20029;-80
2022/10/05 07:53:05;;;;;;;12.25;7.35;;;11.90;99.90;;;;;;10406011;28;20091;-82
2022/10/05 07:58:31;;;;;;;10.95;6.78;;;12.10;99.90;;;;;;10406223;28;20028;-80
2022/10/05 08:03:40;;;;;;;10.82;5.95;;;12.30;99.90;;;;;;10402089;28;20034;-82
2022/10/05 08:09:00;;;;;;;8.80;5.68;;;12.40;99.90;;;;;;10406265;28;20033;-79
2022/10/05 08:14:05;;;;;;;8.57;4.97;;;12.70;99.90;;;;;;10405429;28;20091;-79
2022/10/05 08:19:13;;;;;;;8.97;5.50;;;12.90;99.90;;;;;;10405347;28;20026;-80
2022/10/05 08:24:16;;;;;;;9.25;5.30;;;13.00;99.90;;;;;;10392232;28;20026;-80
2022/10/05 08:29:29;;;;;;;8.50;5.95;;;13.20;99.90;;;;;;10404888;28;20467;-79
2022/10/05 08:35:08;;;;;;;7.03;5.10;;;13.50;99.90;;;;;;10403470;28;20032;-80
2022/10/05 08:40:20;;;;;;;10.65;5.57;;;13.60;99.90;;;;;;10380572;28;20072;-78
2022/10/05 08:45:56;;;;;;;7.63;5.28;;;14.00;99.90;;;;;;10404094;28;20032;-77
2022/10/05 08:51:15;;;;;;;9.10;4.57;;;14.20;99.90;;;;;;10404774;28;20454;-80
2022/10/05 08:56:29;;;;;;;7.97;4.93;;;14.50;99.90;;;;;;10404262;28;20052;-78
2022/10/05 09:01:32;;;;;;;7.55;4.80;;;14.80;99.90;;;;;;10404798;28;20041;-78
2022/10/05 09:07:15;;;;;;;11.55;4.75;;;14.90;99.90;;;;;;10403975;28;20055;-79
2022/10/05 09:12:40;;;;;;;5.93;4.25;;;15.10;99.90;;;;;;10403859;28;20505;-79
2022/10/05 09:18:00;;;;;;;9.23;4.87;;;14.90;99.90;;;;;;10403865;28;20083;-79
2022/10/05 09:23:13;;;;;;;4.70;3.65;;;14.80;99.90;;;;;;10403953;28;20040;-79
2022/10/05 09:29:00;;;;;;;9.50;4.80;;;14.90;99.90;;;;;;10403755;28;20049;-80
2022/10/05 09:34:39;;;;;;;7.60;4.40;;;15.10;99.90;;;;;;10404133;28;20427;-81
2022/10/05 09:39:58;;;;;;;6.15;4.00;;;15.30;99.90;;;;;;10410452;28;20067;-80
2022/10/05 09:45:25;;;;;;;9.88;4.00;;;15.40;99.90;;;;;;10410991;28;20091;-80
2022/10/05 09:50:28;;;;;;;;;;;15.30;99.90;;;;;;10411042;28;20029;-79
2022/10/05 09:56:00;;;;;;;7.88;4.47;;;15.40;99.90;;;;;;10410728;28;20423;-79
2022/10/05 10:01:31;;;;;;;6.80;3.90;;;15.80;99.90;;;;;;10410311;28;20033;-80
2022/10/05 10:06:50;;;;;;;7.25;3.88;;;16.00;99.90;;;;;;10409990;28;20030;-79
2022/10/05 10:12:12;;;;;;;6.20;3.33;;;16.20;99.90;;;;;;10410009;28;20045;-79
2022/10/05 10:17:32;;;;;;;7.57;3.20;;;16.30;99.90;;;;;;10410145;28;20039;-79
2022/10/05 10:23:00;;;;;;;6.60;3.05;;;16.40;99.90;;;;;;10409534;28;20146;-78
2022/10/05 10:28:38;;;;;;;6.78;3.20;;;16.40;99.90;;;;;;10408822;28;20111;-80
2022/10/05 10:33:57;;;;;;;6.25;4.20;;;16.40;99.90;;;;;;10409228;28;20017;-79
2022/10/05 10:39:06;;;;;;;5.28;3.35;;;16.40;99.90;;;;;;10409118;28;20066;-81
2022/10/05 10:44:29;;;;;;;8.85;3.97;;;16.50;99.90;;;;;;10408620;28;20397;-78
2022/10/05 10:50:01;;;;;;;6.40;3.88;;;16.50;99.90;;;;;;10408998;28;20437;-79
2022/10/05 10:55:37;;;;;;;7.50;3.80;;;16.50;99.90;;;;;;10408228;28;20029;-78
2022/10/05 11:00:53;;;;;;;5.45;3.55;;;16.50;99.90;;;;;;10408737;28;20112;-79
2022/10/05 11:06:16;;;;;;;8.18;3.42;;;16.50;99.90;;;;;;10408229;28;20741;-78
2022/10/05 11:11:41;;;;;;;4.93;2.88;;;16.60;99.90;;;;;;10407726;28;20037;-80
2022/10/05 11:17:02;;;;;;;4.73;3.23;;;16.60;99.90;;;;;;10407656;28;20034;-79
2022/10/05 11:22:18;;;;;;;4.68;3.00;;;16.50;99.90;;;;;;10396065;28;20164;-78
2022/10/05 11:27:28;;;;;;;7.45;3.92;;;16.60;99.90;;;;;;10407966;28;20036;-81
2022/10/05 11:32:40;;;;;;;3.97;3.05;;;16.70;99.90;;;;;;10393150;28;20065;-82
2022/10/05 11:38:22;;;;;;;8.38;4.20;;;16.80;99.90;;;;;;10407985;28;20033;-78
2022/10/05 11:43:37;;;;;;;6.68;3.42;;;17.00;99.90;;;;;;10398227;28;20029;-78
2022/10/05 11:48:54;;;;;;;7.65;3.53;;;17.20;99.90;;;;;;10386293;28;20041;-77
2022/10/05 11:54:05;;;;;;;7.63;3.40;;;17.40;99.90;;;;;;10386981;28;20108;-77
2022/10/05 11:59:33;;;;;;;4.68;2.80;;;17.40;99.90;;;;;;10398421;28;20198;-80
2022/10/05 12:04:54;;;;;;;4.97;3.05;;;17.50;99.90;;;;;;10398605;28;20029;-81
2022/10/05 12:10:36;;;;;;;6.95;3.28;;;17.60;99.90;;;;;;10402623;28;20584;-82
2022/10/05 12:16:04;;;;;;;4.43;2.80;;;17.70;98.50;;;;;;10358939;28;20042;-80
2022/10/05 12:21:30;;;;;;;4.97;3.17;;;17.80;99.20;;;;;;10399038;28;20057;-78
2022/10/05 12:26:46;;;;;;;8.25;2.83;;;17.80;99.10;;;;;;10403536;28;20059;-79
2022/10/05 12:32:39;;;;;;;6.97;2.72;;;17.70;97.70;;;;;;10405593;28;20172;-79
2022/10/05 12:37:54;;;;;;;8.25;2.92;;;17.60;99.50;;;;;;10398050;28;20117;-81
2022/10/05 12:43:21;;;;;;;6.93;3.45;;;17.60;98.20;;;;;;10404766;28;20543;-80
2022/10/05 12:48:36;;;;;;;7.55;3.88;;;17.50;97.60;;;;;;10405101;28;20022;-78
2022/10/05 12:54:03;;;;;;;8.10;3.10;;;17.50;98.10;;;;;;10404538;28;20021;-82
2022/10/05 12:59:41;;;;;;;6.28;3.35;;;17.50;98.10;;;;;;10404513;28;20650;-78
2022/10/05 13:04:55;;;;;;;5.88;2.95;;;17.50;97.50;;;;;;10357457;28;20088;-78
2022/10/05 13:10:30;;;;;;;4.80;2.83;;;17.50;98.20;;;;;;10394975;28;20046;-78
2022/10/05 13:15:34;;;;;;;7.80;3.65;;;17.40;98.10;;;;;;10412990;28;20037;-81
2022/10/05 13:20:45;;;;;;;10.75;4.20;;;17.30;98.50;;;;;;10412297;28;20080;-79
2022/10/05 13:25:55;;;;;;;9.68;3.97;;;17.10;98.20;;;;;;10412446;28;20030;-78
2022/10/05 13:31:22;;;;;;;8.25;4.68;;;16.90;98.30;;;;;;10411696;28;20049;-79
2022/10/05 13:36:32;;;;;;;10.65;4.70;;;16.80;99.30;;;;;;10411279;28;20067;-79
2022/10/05 13:41:53;;;;;;;15.45;5.65;;;16.80;99.80;;;;;;10411706;28;20559;-79
2022/10/05 13:47:21;;;;;;;8.32;5.03;;;16.90;99.90;;;;;;10404719;28;20034;-78
2022/10/05 13:53:01;;;;;;;10.13;4.70;;;17.10;99.90;;;;;;10406449;28;20080;-79
2022/10/05 13:58:21;;;;;;;10.57;4.10;;;17.20;99.90;;;;;;10368558;28;20037;-78
2022/10/05 14:03:33;;;;;;;7.72;3.45;;;17.30;99.40;;;;;;10386843;28;20030;-77
2022/10/05 14:08:47;;;;;;;5.60;3.90;;;17.30;99.90;;;;;;10382633;28;20124;-80
2022/10/05 14:13:49;;;;;;;8.43;4.50;;;17.40;99.90;;;;;;10409887;28;20116;-78
2022/10/05 14:19:23;;;;;;;9.23;4.40;;;17.40;99.90;;;;;;10395133;28;20049;-79
2022/10/05 14:24:33;;;;;;;12.00;5.53;;;17.40;99.90;;;;;;10396850;28;20653;-77
2022/10/05 14:29:36;;;;;;;8.20;4.95;;;17.30;99.90;;;;;;10409112;28;20144;-79
2022/10/05 14:34:41;;;;;;;6.25;4.72;;;17.20;99.90;;;;;;10400158;28;20029;-78
2022/10/05 14:39:44;;;;;;;231.05;206.20;;;17.10;99.90;;;;;;10381584;28;20099;-79
2022/10/05 14:44:59;;;;;;;10.70;8.55;;;17.00;99.90;;;;;;10409080;28;20037;-80
2022/10/05 14:50:15;;;;;;;6.75;4.20;;;16.90;99.90;;;;;;10392115;28;20025;-78
2022/10/05 14:55:27;;;;;;;8.43;4.70;;;16.70;99.90;;;;;;10380221;28;20036;-82
2022/10/05 15:00:32;;;;;;;7.05;4.38;;;16.60;99.90;;;;;;10386114;28;20132;-79
2022/10/05 15:05:42;;;;;;;7.68;4.78;;;16.50;99.90;;;;;;10397512;28;20037;-82
2022/10/05 15:10:51;;;;;;;9.73;5.53;;;16.40;99.90;;;;;;10393052;28;20130;-80
2022/10/05 15:16:01;;;;;;;9.27;6.18;;;16.20;99.90;;;;;;10394649;28;20416;-78
2022/10/05 15:21:07;;;;;;;10.38;5.47;;;16.10;99.90;;;;;;10402547;28;20084;-80
2022/10/05 15:26:17;;;;;;;7.43;4.57;;;15.90;99.90;;;;;;10380466;28;20029;-79
2022/10/05 15:31:29;;;;;;;8.00;5.03;;;15.70;99.90;;;;;;10400956;28;20139;-77
2022/10/05 15:36:36;;;;;;;9.52;4.78;;;15.60;99.90;;;;;;10405610;28;20034;-77
2022/10/05 15:41:59;;;;;;;8.85;5.32;;;15.50;99.90;;;;;;10396038;28;20485;-79
2022/10/05 15:47:22;;;;;;;10.27;5.65;;;15.30;99.90;;;;;;10397496;28;20036;-80
2022/10/05 15:52:30;;;;;;;13.27;7.18;;;15.20;99.90;;;;;;10388865;28;20047;-79
2022/10/05 15:57:56;;;;;;;14.82;7.80;;;15.00;99.90;;;;;;10402568;28;20040;-80
2022/10/05 16:03:22;;;;;;;18.63;7.67;;;14.90;99.90;;;;;;10393877;28;20067;-77
2022/10/05 16:08:50;;;;;;;;;;;14.80;99.90;;;;;;10399049;28;20021;-78
2022/10/05 16:14:27;;;;;;;18.10;9.30;;;14.60;99.90;;;;;;10401334;28;19920;-79
2022/10/05 16:19:57;;;;;;;19.92;9.93;;;14.40;99.90;;;;;;10401970;28;20030;-77
2022/10/05 16:25:21;;;;;;;19.10;11.27;;;14.30;99.90;;;;;;10404300;28;20068;-80
2022/10/05 16:30:23;;;;;;;22.90;11.68;;;14.20;99.90;;;;;;10393339;28;20123;-78
2022/10/05 16:35:38;;;;;;;24.70;12.63;;;14.10;99.90;;;;;;10397798;28;20744;-78
2022/10/05 16:41:02;;;;;;;22.48;12.00;;;14.10;99.90;;;;;;10404518;28;20218;-78
2022/10/05 16:46:25;;;;;;;23.13;12.77;;;14.00;99.90;;;;;;10402596;28;20504;-77
2022/10/05 16:51:32;;;;;;;26.73;13.32;;;13.90;99.90;;;;;;10405282;28;20932;-76
2022/10/05 16:56:43;;;;;;;25.92;12.55;;;13.90;99.90;;;;;;10405066;28;20687;-78
2022/10/05 17:02:03;;;;;;;20.40;12.45;;;13.80;99.90;;;;;;10400893;28;20499;-79
2022/10/05 17:07:15;;;;;;;23.80;12.43;;;13.80;99.90;;;;;;10399989;28;20028;-77
2022/10/05 17:12:19;;;;;;;23.92;13.20;;;13.70;99.90;;;;;;10397964;28;20422;-77
2022/10/05 17:17:22;;;;;;;21.80;11.88;;;13.60;99.90;;;;;;10401592;28;20092;-76
2022/10/05 17:22:34;;;;;;;19.73;11.82;;;13.60;99.90;;;;;;10379972;28;20041;-78
2022/10/05 17:28:13;;;;;;;22.55;12.52;;;13.60;99.90;;;;;;10394636;28;20037;-77
2022/10/05 17:33:26;;;;;;;16.02;9.95;;;13.60;99.90;;;;;;10397351;28;20195;-76
2022/10/05 17:38:32;;;;;;;16.65;9.57;;;13.50;99.90;;;;;;10401231;28;20080;-77
2022/10/05 17:43:33;;;;;;;16.92;9.57;;;13.50;99.90;;;;;;10405023;28;20109;-78
2022/10/05 17:49:02;;;;;;;17.20;9.73;;;13.50;99.90;;;;;;10400771;28;20535;-77
2022/10/05 17:59:45;;;;;;;19.98;11.90;;;13.50;99.90;;;;;;10395882;28;20042;-80
2022/10/05 18:05:13;;;;;;;17.85;11.32;;;13.40;99.90;;;;;;10399730;28;20116;-76
2022/10/05 18:10:27;;;;;;;27.00;14.63;;;13.40;99.90;;;;;;10408334;28;20477;-77
2022/10/05 18:15:27;;;;;;;51.28;28.52;;;13.40;99.90;;;;;;10407736;28;20029;-79
2022/10/05 18:20:33;;;;;;;32.60;20.05;;;13.40;99.90;;;;;;10403559;28;20041;-79
2022/10/05 18:25:44;;;;;;;29.70;17.95;;;13.40;99.90;;;;;;10392656;28;20029;-79
2022/10/05 18:31:09;;;;;;;28.83;15.10;;;13.30;99.90;;;;;;10398486;28;20150;-79
2022/10/05 18:36:27;;;;;;;27.30;15.03;;;13.40;99.90;;;;;;10400386;28;20056;-79
2022/10/05 18:41:28;;;;;;;25.13;14.93;;;13.40;99.90;;;;;;10395552;28;20037;-78
2022/10/05 18:46:39;;;;;;;28.77;15.13;;;13.30;99.90;;;;;;10389078;28;20033;-79
2022/10/05 18:51:51;;;;;;;28.30;16.75;;;13.30;99.90;;;;;;10406248;28;20033;-77
2022/10/05 18:56:52;;;;;;;29.63;18.10;;;13.30;99.90;;;;;;10395065;28;20113;-79
2022/10/05 19:02:09;;;;;;;26.67;15.77;;;13.20;99.90;;;;;;10402943;28;20037;-79
2022/10/05 19:07:48;;;;;;;26.88;13.68;;;13.20;99.90;;;;;;10408758;28;20022;-77
2022/10/05 19:13:45;;;;;;;25.98;14.23;;;13.20;99.90;;;;;;10377983;28;20463;-79
2022/10/05 19:18:57;;;;;;;23.65;14.93;;;13.20;99.90;;;;;;10394742;28;20049;-76
2022/10/05 19:24:28;;;;;;;30.48;13.38;;;13.10;99.90;;;;;;10397532;28;20048;-79
2022/10/05 19:29:42;;;;;;;26.38;14.73;;;13.10;99.90;;;;;;10406490;28;20054;-77
2022/10/05 19:34:49;;;;;;;27.98;13.85;;;13.00;99.90;;;;;;10404437;28;20026;-81
2022/10/05 19:40:00;;;;;;;32.50;17.63;;;12.90;99.90;;;;;;10395282;28;20041;-77
2022/10/05 19:45:19;;;;;;;31.00;22.60;;;12.80;99.90;;;;;;10395294;28;20033;-76
2022/10/05 19:50:22;;;;;;;20.08;12.95;;;12.80;99.90;;;;;;10400326;28;20033;-77
2022/10/05 19:55:30;;;;;;;21.63;11.45;;;12.70;99.90;;;;;;10394390;28;20083;-77
2022/10/05 20:00:34;;;;;;;27.58;13.38;;;12.70;99.90;;;;;;10404807;28;20112;-77
2022/10/05 20:05:34;;;;;;;31.58;18.55;;;12.60;99.90;;;;;;10389419;28;20058;-77
2022/10/05 20:10:35;;;;;;;22.40;14.77;;;12.60;99.90;;;;;;10393378;28;20852;-77
2022/10/05 20:20:55;;;;;;;22.10;13.85;;;12.50;99.90;;;;;;10392078;28;20049;-76
2022/10/05 20:31:18;;;;;;;33.78;17.88;;;12.40;99.90;;;;;;10396674;28;20057;-77
2022/10/05 20:36:26;;;;;;;32.22;19.02;;;12.30;99.90;;;;;;10402558;28;20045;-78
2022/10/05 20:41:27;;;;;;;36.10;22.83;;;12.20;99.90;;;;;;10402674;28;20033;-79
2022/10/05 20:46:29;;;;;;;33.63;23.05;;;12.20;99.90;;;;;;10397515;28;20040;-79
2022/10/05 20:51:30;;;;;;;34.85;23.08;;;12.00;99.90;;;;;;10404431;28;20064;-76
2022/10/05 20:56:31;;;;;;;30.23;18.52;;;12.00;99.90;;;;;;10399474;28;20116;-78
2022/10/05 21:01:33;;;;;;;26.90;15.45;;;12.00;99.90;;;;;;10397851;28;20070;-77
2022/10/05 21:06:33;;;;;;;23.63;14.13;;;12.00;99.90;;;;;;10391884;28;20061;-78
2022/10/05 21:11:34;;;;;;;21.83;12.57;;;12.00;99.90;;;;;;10390839;28;20037;-78
2022/10/05 21:16:36;;;;;;;24.05;13.05;;;11.90;99.90;;;;;;10401716;28;20041;-79
2022/10/05 21:21:38;;;;;;;23.33;13.30;;;11.90;99.90;;;;;;10402318;28;20037;-77
2022/10/05 21:26:40;;;;;;;27.17;15.30;;;11.90;99.90;;;;;;10402895;28;20028;-77
2022/10/05 21:31:47;;;;;;;38.95;21.55;;;11.80;99.90;;;;;;10386177;28;20061;-77
2022/10/05 21:36:48;;;;;;;41.78;23.95;;;11.80;99.90;;;;;;10402484;28;20057;-77
2022/10/05 21:41:48;;;;;;;39.33;23.73;;;11.70;99.90;;;;;;10406789;28;20128;-76
2022/10/05 21:46:49;;;;;;;38.17;24.13;;;11.70;99.90;;;;;;10404208;28;20033;-79
2022/10/05 21:51:49;;;;;;;33.88;22.52;;;11.60;99.90;;;;;;10408338;28;20362;-77
2022/10/05 21:56:53;;;;;;;35.13;22.73;;;11.60;99.90;;;;;;10407733;28;20040;-77
2022/10/05 22:01:53;;;;;;;38.35;23.23;;;11.60;99.90;;;;;;10398925;28;20041;-77
2022/10/05 22:06:55;;;;;;;35.67;23.77;;;11.60;99.90;;;;;;10408205;28;20037;-77
2022/10/05 22:11:56;;;;;;;38.15;23.10;;;11.60;99.90;;;;;;10398916;28;20929;-77
2022/10/05 22:16:56;;;;;;;34.13;24.10;;;11.50;99.90;;;;;;10409758;28;20112;-77
2022/10/05 22:21:57;;;;;;;33.65;22.75;;;11.50;99.90;;;;;;10409081;28;20396;-77
2022/10/05 22:26:57;;;;;;;35.67;22.70;;;11.40;99.90;;;;;;10406620;28;20025;-78
2022/10/05 22:32:04;;;;;;;33.50;20.67;;;11.40;99.90;;;;;;10408351;28;20058;-78
2022/10/05 22:37:05;;;;;;;36.20;21.77;;;11.30;99.90;;;;;;10406225;28;20120;-78
2022/10/05 22:42:06;;;;;;;28.05;19.38;;;11.30;99.90;;;;;;10395764;28;20041;-77
2022/10/05 22:47:07;;;;;;;32.72;21.80;;;11.30;99.90;;;;;;10406922;28;20030;-77
2022/10/05 22:52:07;;;;;;;30.13;19.63;;;11.30;99.90;;;;;;10408468;28;20045;-76
2022/10/05 22:57:08;;;;;;;28.60;18.08;;;11.30;99.90;;;;;;10399942;28;20037;-76
2022/10/05 23:02:09;;;;;;;33.17;18.50;;;11.20;99.90;;;;;;10397921;28;20477;-80
2022/10/05 23:07:09;;;;;;;28.48;17.13;;;11.10;99.90;;;;;;10407640;28;20079;-77
2022/10/05 23:12:12;;;;;;;23.50;14.05;;;11.00;99.90;;;;;;10405470;28;20576;-76
2022/10/05 23:17:12;;;;;;;23.05;13.80;;;11.00;99.90;;;;;;10406289;28;20025;-77
2022/10/05 23:22:13;;;;;;;22.90;12.27;;;10.90;99.90;;;;;;10396114;28;20033;-77
2022/10/05 23:27:13;;;;;;;19.65;10.80;;;10.90;99.90;;;;;;10396166;28;20025;-77
2022/10/05 23:32:14;;;;;;;19.35;10.38;;;10.90;99.90;;;;;;10399224;28;20111;-79
2022/10/05 23:37:16;;;;;;;14.93;9.52;;;10.90;99.90;;;;;;10407016;28;20037;-77
2022/10/05 23:42:17;;;;;;;16.80;9.95;;;10.90;99.90;;;;;;10391095;28;20069;-78
2022/10/05 23:47:17;;;;;;;17.38;9.90;;;10.80;99.90;;;;;;10400308;28;20484;-77
2022/10/05 23:52:18;;;;;;;16.48;9.55;;;10.80;99.90;;;;;;10405895;28;20033;-78
2022/10/05 23:57:19;;;;;;;18.35;9.77;;;10.80;99.90;;;;;;10401696;28;20465;-80
